LIPQLIBP

Guest
Details From LIPQ - Ronchi Dei Legionari
To LIBP - PESCARA
Flight Number -
Tags generated
Created
Modified
Stats Distance 207 nm / 383 km
Max Altitude 21,100 ft / 6,431 m
Waypoints 3
Social Downloads 0
Likes 0
Share VATSIM

Download

Looking for another format? Having issues loading an existing format? Contact us
Advertisement - Login to hide

Notes

Basic altitude profile: - Ascent Rate: 2500ft/min - Ascent Speed: 250kts - Cruise Altitude: 35000ft - Cruise Speed: 420kts - Descent Rate: 1500ft/min - Descent Speed: 250kts Options: - Use NATs: no - Use PACOTS: no - Use low airways: yes - Use high airways: yes

Route

LIPQ BUSER LIBP

ID Type Via Altitude Latitude Longitude Leg Dist Tot Dist Heading (true) Name
O LIPQ APT - 0 ft / 0 m 45.82786˚ 13.46666˚ - 0 nm - Ronchi Dei Legionari
BUSER FIX - 21,100 ft / 6,431 m 44.10667˚ 13.64889˚ 103 nm 103 nm 176° / 176° -
O LIBP APT - 0 ft / 0 m 42.43126˚ 14.18303˚ 103 nm 206 nm 167° / 167° PESCARA

Altitude Profile

Advertisement - Login to hide

Weather


0- 5 10 15 20 25 30 35+ Temperature / ° C

Clouds and Precipitation
Forecast for 2018-05-27 06:00 UTC. Updated 32 minutes ago

Ground ~20,000 ft ~40,000 ft Winds

LIPQ

Details ICAO LIPQ (TRS)
Name Ronchi Dei Legionari
Region Italy
Timezone Europe/Rome (UTC+2.0)
Stats Elevation 37 ft / 11 m (AMSL)
Location 45.827857° 13.466663°
Runways 1
Magnetic Variation 3.482° E

METAR

LIPQ 270520Z 06003KT CAVOK 19/17 Q1018

Decode

TAF

TAF LIPQ 262300Z 2700/2724 04007KT 9999 SCT040 TEMPO 2710/2718 TSRA

Decode

Departure Runways

ID Width Length Bearing (true) Bearing (mag) Surface Threshold Offset Overrun Length
09 148 ft / 45 m 9,819 ft / 2,993 m 90.42° 86.94° Asphalt 823 ft / 251 m 0 ft / 0 m
27 148 ft / 45 m 9,819 ft / 2,993 m 270.44° 266.96° Asphalt 10 ft / 3 m 190 ft / 58 m

LIBP

Details ICAO LIBP (PSR)
Name PESCARA
Region Italy
Timezone Europe/Rome (UTC+2.0)
Stats Elevation 48 ft / 15 m (AMSL)
Location 42.431257° 14.183030°
Runways 1
Magnetic Variation 3.429° E

METAR

LIBP 270450Z AUTO 21005KT 9999 NSC 17/17 Q1019

Decode

TAF

TAF LIBP 262300Z 2700/2724 VRB05KT CAVOK BECMG 2708/2710 04010KT BECMG 2716/2718 VRB04KT

Decode

Destination Runways

ID Width Length Bearing (true) Bearing (mag) Surface Threshold Offset Overrun Length
04 148 ft / 45 m 7,943 ft / 2,421 m 37.19° 33.76° Asphalt 344 ft / 105 m 0 ft / 0 m
22 148 ft / 45 m 7,943 ft / 2,421 m 217.21° 213.78° Asphalt 617 ft / 188 m 0 ft / 0 m

Approach Navaids

Runway Type Ident Frequency Range Bearing (true) Bearing (mag) Slope Elevation
22 Localiser IPS 110.70 MHz 18 nm / 33 km 217.39° 213.96° - 48 ft / 15 m (AMSL)
22 Glidescope IPS 110.70 MHz 10 nm / 19 km 217.20° 213.77° 3.00° 48 ft / 15 m (AMSL)
22 DME IPS 110.70 MHz 18 nm / 33 km - - - 48 ft / 15 m (AMSL)

Popular Alternatives